Time;durP1;ratioP1;P1;durP2;ratioP2;P2;SDS_P1;SDS_P2;PMS_P1;PMS_P2;Temp;Humidity;BMP_temperature;BMP_pressure;BME280_temperature;BME280_humidity;BME280_pressure;Samples;Min_cycle;Max_cycle;Signal;HPM_P1;HPM_P2
2021/05/26 00:00:18;;;;;;;1.30;0.70;;;8.40;99.90;;;;;;5069974;28;20842;-70
2021/05/26 00:02:45;;;;;;;1.40;0.73;;;8.40;99.90;;;;;;5073191;28;20512;-69
2021/05/26 00:05:12;;;;;;;1.20;0.90;;;8.40;99.90;;;;;;5072529;28;20453;-70
2021/05/26 00:07:40;;;;;;;2.23;0.93;;;8.50;99.90;;;;;;5073323;28;20533;-70
2021/05/26 00:10:08;;;;;;;1.73;1.37;;;8.50;99.90;;;;;;5073539;28;20765;-70
2021/05/26 00:12:35;;;;;;;1.20;0.90;;;8.50;99.90;;;;;;5073428;28;20421;-70
2021/05/26 00:15:02;;;;;;;2.30;1.00;;;8.60;99.90;;;;;;5073188;28;20446;-71
2021/05/26 00:17:29;;;;;;;1.73;1.10;;;8.50;99.90;;;;;;5073056;28;20469;-71
2021/05/26 00:19:55;;;;;;;2.97;0.90;;;8.50;99.90;;;;;;5073190;28;20520;-71
2021/05/26 00:22:22;;;;;;;1.60;1.03;;;8.50;99.90;;;;;;5073419;28;20426;-71
2021/05/26 00:24:50;;;;;;;1.43;1.00;;;8.60;99.90;;;;;;5073430;28;20526;-70
2021/05/26 00:27:16;;;;;;;1.00;0.80;;;8.70;99.90;;;;;;5073099;28;20485;-70
2021/05/26 00:29:44;;;;;;;1.00;0.87;;;8.60;99.90;;;;;;5073058;28;20960;-70
2021/05/26 00:32:11;;;;;;;1.10;0.90;;;8.60;99.90;;;;;;5073214;28;20803;-71
2021/05/26 00:34:37;;;;;;;1.30;0.90;;;8.60;99.90;;;;;;5072620;28;20453;-70
2021/05/26 00:37:05;;;;;;;1.67;1.20;;;8.60;99.90;;;;;;5072996;28;20527;-71
2021/05/26 00:39:32;;;;;;;1.37;1.00;;;8.50;99.90;;;;;;5073150;28;20437;-70
2021/05/26 00:42:00;;;;;;;1.00;0.80;;;8.50;99.90;;;;;;5072852;28;20441;-71
2021/05/26 00:44:26;;;;;;;1.90;0.90;;;8.50;99.90;;;;;;5072643;28;20444;-71
2021/05/26 00:46:53;;;;;;;1.00;0.90;;;8.60;99.90;;;;;;5072612;28;20965;-71
2021/05/26 00:49:21;;;;;;;2.27;1.20;;;8.60;99.90;;;;;;5072895;28;20805;-71
2021/05/26 00:51:48;;;;;;;4.73;1.03;;;8.60;99.90;;;;;;5072211;28;20488;-71
2021/05/26 00:54:15;;;;;;;1.90;0.80;;;8.50;99.90;;;;;;5072450;28;20437;-71
2021/05/26 00:56:42;;;;;;;1.50;0.90;;;8.50;99.90;;;;;;5072678;28;20480;-71
2021/05/26 00:59:09;;;;;;;1.27;0.80;;;8.50;99.90;;;;;;5072589;28;20473;-70
2021/05/26 01:01:36;;;;;;;1.40;1.00;;;8.50;99.90;;;;;;5072494;28;20499;-70
2021/05/26 01:04:04;;;;;;;5.53;1.57;;;8.50;99.90;;;;;;5072123;28;20930;-72
2021/05/26 01:06:30;;;;;;;1.73;1.03;;;8.50;99.90;;;;;;5072195;28;20521;-71
2021/05/26 01:08:57;;;;;;;1.40;0.80;;;8.50;99.90;;;;;;5072357;28;20852;-71
2021/05/26 01:11:24;;;;;;;4.80;1.00;;;8.50;99.90;;;;;;5072259;28;20434;-71
2021/05/26 01:13:51;;;;;;;1.00;0.77;;;8.50;99.90;;;;;;5071375;28;20430;-71
2021/05/26 01:16:18;;;;;;;1.00;0.70;;;8.40;99.90;;;;;;5072593;28;20803;-71
2021/05/26 01:18:45;;;;;;;2.90;1.50;;;8.30;99.90;;;;;;5072099;28;20916;-72
2021/05/26 01:21:12;;;;;;;0.90;0.70;;;8.30;99.90;;;;;;5072266;28;20424;-71
2021/05/26 01:23:41;;;;;;;2.43;0.90;;;8.20;99.90;;;;;;5071870;28;20461;-71
2021/05/26 01:26:08;;;;;;;4.80;1.13;;;8.20;99.90;;;;;;5072163;28;20450;-71
2021/05/26 01:28:37;;;;;;;2.13;1.10;;;8.20;99.90;;;;;;5071896;28;20433;-71
2021/05/26 01:31:04;;;;;;;1.77;0.90;;;8.20;99.90;;;;;;5072104;28;20823;-71
2021/05/26 01:33:31;;;;;;;1.20;1.03;;;8.10;99.90;;;;;;5070995;28;20514;-71
2021/05/26 01:35:58;;;;;;;2.27;0.90;;;8.10;99.90;;;;;;5071907;28;20535;-71
2021/05/26 01:38:25;;;;;;;1.77;0.90;;;8.10;99.90;;;;;;5071553;28;21005;-71
2021/05/26 01:40:58;;;;;;;1.73;0.83;;;8.10;99.90;;;;;;5071659;28;20432;-71
2021/05/26 01:43:25;;;;;;;4.03;1.07;;;8.10;99.90;;;;;;5071639;28;20437;-71
2021/05/26 01:45:52;;;;;;;1.83;0.90;;;8.20;99.90;;;;;;5071695;28;20913;-70
2021/05/26 01:48:19;;;;;;;2.17;1.10;;;8.10;99.90;;;;;;5071709;28;20520;-71
2021/05/26 01:50:45;;;;;;;1.10;0.87;;;8.10;99.90;;;;;;5071172;28;20445;-71
2021/05/26 01:53:12;;;;;;;1.13;0.90;;;8.10;99.90;;;;;;5071365;28;20795;-71
2021/05/26 01:55:40;;;;;;;1.30;1.20;;;8.10;99.90;;;;;;5071292;28;21010;-71
2021/05/26 01:58:08;;;;;;;1.67;1.03;;;8.10;99.90;;;;;;5071545;28;20475;-71
2021/05/26 02:00:36;;;;;;;1.67;0.80;;;8.10;99.90;;;;;;5071292;28;20476;-71
2021/05/26 02:03:02;;;;;;;1.00;0.90;;;8.20;99.90;;;;;;5071446;28;20472;-71
2021/05/26 02:05:29;;;;;;;1.87;1.20;;;8.20;99.90;;;;;;5070827;28;20429;-71
2021/05/26 02:07:56;;;;;;;1.37;0.90;;;8.20;99.90;;;;;;5071161;28;20490;-71
2021/05/26 02:13:04;;;;;;;1.20;1.07;;;8.30;99.90;;;;;;5070220;28;20507;-71
2021/05/26 02:15:38;;;;;;;2.30;0.93;;;8.30;99.90;;;;;;5071164;28;20802;-71
2021/05/26 02:18:05;;;;;;;1.00;0.83;;;8.30;99.90;;;;;;5071177;28;20470;-71
2021/05/26 02:20:32;;;;;;;5.13;1.10;;;8.30;99.90;;;;;;5070620;28;20476;-71
2021/05/26 02:22:59;;;;;;;2.20;1.10;;;8.30;99.90;;;;;;5070997;28;20432;-71
2021/05/26 02:25:25;;;;;;;2.70;1.00;;;8.30;99.90;;;;;;5070242;28;20918;-71
2021/05/26 02:27:52;;;;;;;1.50;1.10;;;8.40;99.90;;;;;;5071238;28;20464;-71
2021/05/26 02:30:20;;;;;;;1.20;0.80;;;8.40;99.90;;;;;;5071144;28;20775;-70
2021/05/26 02:32:47;;;;;;;1.40;0.90;;;8.40;99.90;;;;;;5070968;28;20444;-71
2021/05/26 02:35:15;;;;;;;3.10;1.00;;;8.40;99.90;;;;;;5070628;28;20445;-71
2021/05/26 02:37:41;;;;;;;5.20;0.90;;;8.40;99.90;;;;;;5070776;28;20481;-71
2021/05/26 02:40:09;;;;;;;1.50;1.03;;;8.30;99.90;;;;;;5071054;28;20426;-71
2021/05/26 02:42:36;;;;;;;2.10;0.90;;;8.40;99.90;;;;;;5070826;28;20437;-71
2021/05/26 02:45:04;;;;;;;2.80;1.57;;;8.30;99.90;;;;;;5070992;28;20528;-71
2021/05/26 02:47:30;;;;;;;1.40;0.90;;;8.30;99.90;;;;;;5070784;28;20467;-71
2021/05/26 02:49:58;;;;;;;2.93;1.10;;;8.30;99.90;;;;;;5070496;28;20927;-71
2021/05/26 02:52:25;;;;;;;1.37;1.00;;;8.30;99.90;;;;;;5070716;28;20430;-71
2021/05/26 02:54:52;;;;;;;1.93;1.00;;;8.30;99.90;;;;;;5070595;28;20979;-71
2021/05/26 02:57:20;;;;;;;1.70;1.10;;;8.30;99.90;;;;;;5070657;28;20815;-71
2021/05/26 02:59:47;;;;;;;2.03;1.20;;;8.30;99.90;;;;;;5071001;28;20434;-71
2021/05/26 03:02:14;;;;;;;1.10;0.80;;;8.30;99.90;;;;;;5070587;28;20418;-71
2021/05/26 03:04:40;;;;;;;3.80;1.33;;;8.40;99.90;;;;;;5070407;28;20441;-71
2021/05/26 03:07:08;;;;;;;1.00;0.90;;;8.40;99.90;;;;;;5070400;28;20485;-71
2021/05/26 03:09:35;;;;;;;2.60;0.93;;;8.40;99.90;;;;;;5070653;28;20460;-71
2021/05/26 03:12:01;;;;;;;1.40;1.10;;;8.40;99.90;;;;;;5070382;28;20452;-71
2021/05/26 03:14:28;;;;;;;1.00;0.87;;;8.50;99.90;;;;;;5070499;28;20429;-72
2021/05/26 03:16:55;;;;;;;3.40;0.93;;;8.50;99.90;;;;;;5070322;28;20445;-71
2021/05/26 03:19:21;;;;;;;1.93;1.17;;;8.50;99.90;;;;;;5070151;28;20476;-71
2021/05/26 03:21:48;;;;;;;2.07;1.00;;;8.50;99.90;;;;;;5070493;28;20811;-71
2021/05/26 03:24:16;;;;;;;2.50;0.90;;;8.50;99.90;;;;;;5070338;28;20438;-71
2021/05/26 03:26:43;;;;;;;4.73;0.90;;;8.50;99.90;;;;;;5070210;28;20469;-71
2021/05/26 03:29:10;;;;;;;1.10;0.90;;;8.50;99.90;;;;;;5070344;28;20483;-70
2021/05/26 03:31:37;;;;;;;2.77;0.87;;;8.40;99.90;;;;;;5070409;28;20444;-71
2021/05/26 03:34:04;;;;;;;0.90;0.80;;;8.50;99.90;;;;;;5070008;28;20450;-70
2021/05/26 03:36:31;;;;;;;3.87;1.00;;;8.40;99.90;;;;;;5071777;28;20456;-70
2021/05/26 03:38:58;;;;;;;1.77;1.10;;;8.50;99.90;;;;;;5073976;28;20479;-71
2021/05/26 03:41:25;;;;;;;1.10;0.80;;;8.50;99.90;;;;;;5074166;28;20858;-71
2021/05/26 03:43:52;;;;;;;7.13;0.90;;;8.50;99.90;;;;;;5073595;28;20467;-71
2021/05/26 03:46:19;;;;;;;1.20;1.00;;;8.40;99.90;;;;;;5074041;28;20461;-72
2021/05/26 03:48:45;;;;;;;2.50;0.77;;;8.30;99.90;;;;;;5072938;28;20434;-72
2021/05/26 03:51:12;;;;;;;1.10;0.87;;;8.40;99.90;;;;;;5073775;28;20442;-70
2021/05/26 03:53:39;;;;;;;1.30;1.10;;;8.30;99.90;;;;;;5073537;28;20445;-71
2021/05/26 03:56:06;;;;;;;1.20;0.90;;;8.40;99.90;;;;;;5073833;28;20442;-71
2021/05/26 03:58:34;;;;;;;4.40;1.10;;;8.30;99.90;;;;;;5073562;28;20469;-71
2021/05/26 04:01:01;;;;;;;2.70;1.00;;;8.30;99.90;;;;;;5074012;28;20434;-71
2021/05/26 04:03:27;;;;;;;3.13;1.17;;;8.30;99.90;;;;;;5073473;28;20455;-71
2021/05/26 04:05:55;;;;;;;1.47;1.37;;;8.30;99.90;;;;;;5073350;28;20971;-71
2021/05/26 04:08:21;;;;;;;1.00;0.80;;;8.30;99.90;;;;;;5073622;28;20429;-71
2021/05/26 04:10:49;;;;;;;3.63;1.23;;;8.30;99.90;;;;;;5073607;28;20488;-71
2021/05/26 04:13:15;;;;;;;1.47;0.90;;;8.40;99.90;;;;;;5073253;28;20438;-71
2021/05/26 04:15:43;;;;;;;0.97;0.80;;;8.40;99.90;;;;;;5073420;28;20516;-70
2021/05/26 04:18:10;;;;;;;2.40;0.93;;;8.40;99.90;;;;;;5073426;28;20492;-71
2021/05/26 04:20:37;;;;;;;1.10;0.80;;;8.40;99.90;;;;;;5072976;28;20485;-71
2021/05/26 04:23:04;;;;;;;1.57;0.97;;;8.50;99.90;;;;;;5073230;28;20508;-71
2021/05/26 04:25:30;;;;;;;2.40;0.97;;;8.50;99.90;;;;;;5073169;28;20515;-69
2021/05/26 04:27:57;;;;;;;1.50;0.80;;;8.50;99.90;;;;;;5073232;28;20428;-68
2021/05/26 04:30:24;;;;;;;1.43;0.80;;;8.50;99.90;;;;;;5072994;28;20433;-67
2021/05/26 04:32:52;;;;;;;1.60;0.80;;;8.50;99.90;;;;;;5072044;28;20499;-69
2021/05/26 04:35:19;;;;;;;5.90;1.20;;;8.50;99.90;;;;;;5070728;28;20448;-68
2021/05/26 04:37:46;;;;;;;1.63;0.90;;;8.60;99.90;;;;;;5084044;28;20475;-68
2021/05/26 04:40:13;;;;;;;2.10;0.80;;;8.60;99.90;;;;;;5093042;28;20433;-68
2021/05/26 04:42:40;;;;;;;1.10;0.80;;;8.60;99.90;;;;;;5074704;28;20486;-69
2021/05/26 04:45:08;;;;;;;2.57;1.30;;;8.60;99.90;;;;;;5072585;28;20429;-68
2021/05/26 04:47:35;;;;;;;1.67;0.97;;;8.60;99.90;;;;;;5071733;28;20446;-68
2021/05/26 04:50:03;;;;;;;1.50;1.00;;;8.60;99.90;;;;;;5072444;28;20975;-69
2021/05/26 04:52:30;;;;;;;1.57;0.93;;;8.60;99.90;;;;;;5072427;28;20457;-68
2021/05/26 04:54:56;;;;;;;1.67;1.20;;;8.60;99.90;;;;;;5091063;28;20425;-69
2021/05/26 04:57:23;;;;;;;1.77;1.17;;;8.70;99.90;;;;;;5092439;28;20468;-69
2021/05/26 04:59:50;;;;;;;1.00;0.83;;;8.70;99.90;;;;;;5092665;28;20521;-69
2021/05/26 05:02:17;;;;;;;2.20;0.93;;;8.70;99.90;;;;;;5092667;28;20437;-68
2021/05/26 05:04:43;;;;;;;2.20;0.90;;;8.80;99.90;;;;;;5074871;28;20452;-67
2021/05/26 05:07:11;;;;;;;3.27;1.10;;;8.80;99.90;;;;;;5071883;28;20477;-69
2021/05/26 05:09:38;;;;;;;2.23;1.03;;;8.80;99.90;;;;;;5072214;28;20436;-69
2021/05/26 05:12:06;;;;;;;2.00;1.00;;;8.80;99.90;;;;;;5072199;28;20456;-68
2021/05/26 05:14:33;;;;;;;5.03;0.90;;;8.80;99.90;;;;;;5071991;28;20442;-69
2021/05/26 05:17:00;;;;;;;3.70;1.10;;;8.80;99.90;;;;;;5072112;28;20452;-68
2021/05/26 05:19:26;;;;;;;1.83;0.97;;;8.80;99.90;;;;;;5071683;28;20469;-69
2021/05/26 05:21:53;;;;;;;5.00;1.50;;;8.90;99.90;;;;;;5071780;28;20573;-69
2021/05/26 05:24:21;;;;;;;1.87;1.20;;;8.80;99.90;;;;;;5071626;28;20425;-69
2021/05/26 05:26:48;;;;;;;4.60;1.23;;;8.80;99.90;;;;;;5071853;28;20453;-69
2021/05/26 05:29:14;;;;;;;4.03;1.07;;;8.80;99.90;;;;;;5072134;28;20426;-68
2021/05/26 05:31:41;;;;;;;1.70;1.03;;;9.00;99.90;;;;;;5074525;28;20446;-68
2021/05/26 05:34:08;;;;;;;2.33;1.07;;;9.00;99.90;;;;;;5071437;28;20527;-68
2021/05/26 05:36:34;;;;;;;2.07;1.00;;;9.00;99.90;;;;;;5071422;28;20445;-68
2021/05/26 05:39:01;;;;;;;1.63;1.17;;;9.00;99.90;;;;;;5070948;28;20500;-68
2021/05/26 05:41:30;;;;;;;3.17;1.00;;;9.00;99.90;;;;;;5071468;28;20532;-68
2021/05/26 05:43:57;;;;;;;1.30;0.90;;;9.00;99.90;;;;;;5071077;28;20487;-69
2021/05/26 05:46:24;;;;;;;1.03;0.93;;;9.00;99.90;;;;;;5071604;28;20514;-68
2021/05/26 05:48:50;;;;;;;3.60;0.90;;;9.00;99.90;;;;;;5071282;28;20491;-68
2021/05/26 05:51:17;;;;;;;3.30;1.07;;;9.00;99.90;;;;;;5071340;28;20802;-69
2021/05/26 05:53:44;;;;;;;1.17;0.90;;;9.10;99.90;;;;;;5070989;28;20452;-70
2021/05/26 05:56:11;;;;;;;2.87;1.27;;;9.10;99.90;;;;;;5071261;28;20445;-68
2021/05/26 05:58:38;;;;;;;1.00;0.80;;;9.00;99.90;;;;;;5070670;28;20965;-68
2021/05/26 06:01:05;;;;;;;1.40;0.93;;;9.00;99.90;;;;;;5071321;28;20436;-68
2021/05/26 06:03:32;;;;;;;1.83;1.17;;;9.00;99.90;;;;;;5070990;28;20433;-69
2021/05/26 06:05:58;;;;;;;3.77;1.20;;;9.00;99.90;;;;;;5071452;28;20563;-68
2021/05/26 06:08:25;;;;;;;1.10;0.90;;;9.00;99.90;;;;;;5071166;28;20438;-69
2021/05/26 06:10:52;;;;;;;3.13;1.23;;;9.10;99.90;;;;;;5071372;28;20418;-69
2021/05/26 06:13:19;;;;;;;1.13;0.90;;;9.10;99.90;;;;;;5070595;28;20498;-69
2021/05/26 06:15:46;;;;;;;1.40;1.03;;;9.20;99.90;;;;;;5071265;28;20818;-69
2021/05/26 06:18:13;;;;;;;5.03;1.20;;;9.20;99.90;;;;;;5070971;28;20531;-69
2021/05/26 06:20:40;;;;;;;3.40;1.30;;;9.20;99.90;;;;;;5071190;28;20486;-69
2021/05/26 06:23:06;;;;;;;1.90;0.90;;;9.30;99.90;;;;;;5070874;28;20525;-70
2021/05/26 06:25:33;;;;;;;2.30;1.10;;;9.30;99.90;;;;;;5070735;28;20519;-69
2021/05/26 06:28:00;;;;;;;3.27;1.20;;;9.30;99.90;;;;;;5070931;28;20449;-69
2021/05/26 06:30:27;;;;;;;1.30;1.20;;;9.40;99.90;;;;;;5070683;28;20782;-69
2021/05/26 06:32:54;;;;;;;1.37;1.27;;;9.40;99.90;;;;;;5070151;28;20530;-69
2021/05/26 06:35:21;;;;;;;2.07;1.10;;;9.40;99.90;;;;;;5070471;28;21020;-68
2021/05/26 06:37:48;;;;;;;1.40;0.90;;;9.50;99.90;;;;;;5070774;28;20544;-69
2021/05/26 06:40:15;;;;;;;0.90;0.70;;;9.60;99.90;;;;;;5070542;28;20442;-68
2021/05/26 06:42:42;;;;;;;1.97;0.90;;;9.60;99.90;;;;;;5070545;28;20472;-69
2021/05/26 06:45:10;;;;;;;1.80;0.90;;;9.60;99.90;;;;;;5069761;28;20494;-71
2021/05/26 06:47:36;;;;;;;1.90;1.13;;;9.60;99.90;;;;;;5070618;28;20509;-70
2021/05/26 06:50:05;;;;;;;1.73;1.27;;;9.70;99.90;;;;;;5070715;28;20432;-70
2021/05/26 06:52:32;;;;;;;1.20;0.90;;;9.70;99.90;;;;;;5070374;28;20915;-71
2021/05/26 06:54:59;;;;;;;4.93;1.60;;;9.70;99.90;;;;;;5069891;28;20434;-70
2021/05/26 06:57:26;;;;;;;1.33;1.03;;;9.80;99.90;;;;;;5070254;28;20448;-71
2021/05/26 06:59:53;;;;;;;1.83;0.93;;;9.90;99.90;;;;;;5069435;28;20478;-71
2021/05/26 07:02:19;;;;;;;3.30;1.23;;;10.00;99.90;;;;;;5070150;28;20501;-71
2021/05/26 07:04:47;;;;;;;1.27;0.90;;;10.00;99.90;;;;;;5070177;28;20430;-71
2021/05/26 07:07:17;;;;;;;2.50;1.07;;;10.10;99.90;;;;;;5070184;28;20507;-71
2021/05/26 07:09:44;;;;;;;1.10;0.90;;;10.00;99.90;;;;;;5070635;28;20422;-70
2021/05/26 07:12:11;;;;;;;1.60;1.50;;;10.10;99.90;;;;;;5072892;28;20716;-70
2021/05/26 07:14:39;;;;;;;1.97;1.00;;;10.10;99.90;;;;;;5073715;28;20508;-70
2021/05/26 07:17:06;;;;;;;1.63;1.23;;;10.10;99.90;;;;;;5071627;28;20465;-70
2021/05/26 07:19:36;;;;;;;1.40;1.23;;;10.20;99.90;;;;;;5074204;28;20838;-70
2021/05/26 07:22:05;;;;;;;1.83;1.00;;;10.20;99.90;;;;;;5073868;28;20422;-70
2021/05/26 07:24:33;;;;;;;1.97;1.00;;;10.20;99.90;;;;;;5073757;28;20434;-70
2021/05/26 07:27:00;;;;;;;3.90;0.97;;;10.30;99.90;;;;;;5073791;28;20578;-70
2021/05/26 07:29:27;;;;;;;2.07;1.07;;;10.50;99.90;;;;;;5073751;28;20430;-70
2021/05/26 07:31:53;;;;;;;5.50;1.37;;;10.80;99.90;;;;;;5073769;28;20437;-70
2021/05/26 07:34:20;;;;;;;1.33;0.80;;;10.90;99.90;;;;;;5073684;28;20422;-70
2021/05/26 07:36:47;;;;;;;2.63;1.37;;;11.00;99.90;;;;;;5073778;28;20457;-70
2021/05/26 07:39:13;;;;;;;1.90;1.23;;;11.10;99.90;;;;;;5073721;28;20475;-70
2021/05/26 07:41:41;;;;;;;2.80;1.13;;;11.10;99.90;;;;;;5073670;28;20499;-69
2021/05/26 07:44:08;;;;;;;1.33;1.00;;;11.00;99.90;;;;;;5073622;28;20437;-70
2021/05/26 07:46:35;;;;;;;3.33;1.00;;;11.10;99.90;;;;;;5073507;28;20507;-70
2021/05/26 07:49:02;;;;;;;4.20;1.10;;;11.20;99.90;;;;;;5073320;28;20434;-71
2021/05/26 07:51:30;;;;;;;2.50;0.83;;;11.10;99.90;;;;;;5073665;28;20422;-71
2021/05/26 07:53:57;;;;;;;2.03;1.17;;;11.30;99.90;;;;;;5073334;28;20434;-70
2021/05/26 07:56:24;;;;;;;3.20;1.30;;;11.40;99.90;;;;;;5073400;28;20457;-71
2021/05/26 07:58:51;;;;;;;3.13;1.27;;;11.40;99.90;;;;;;5073667;28;20473;-70
2021/05/26 08:01:18;;;;;;;2.27;1.47;;;11.50;99.90;;;;;;5073899;28;20859;-70
2021/05/26 08:03:45;;;;;;;2.63;1.07;;;11.40;99.90;;;;;;5073420;28;20433;-70
2021/05/26 08:06:12;;;;;;;1.20;1.10;;;11.20;99.90;;;;;;5073486;28;20465;-70
2021/05/26 08:08:39;;;;;;;2.50;1.60;;;11.20;99.90;;;;;;5073643;28;20973;-71
2021/05/26 08:11:06;;;;;;;1.87;1.20;;;11.30;99.90;;;;;;5073512;28;20426;-71
2021/05/26 08:13:33;;;;;;;1.50;1.20;;;11.50;99.90;;;;;;5073298;28;20563;-70
2021/05/26 08:16:00;;;;;;;2.27;1.80;;;11.70;99.90;;;;;;5073373;28;20450;-70
2021/05/26 08:18:27;;;;;;;3.17;1.50;;;11.70;99.90;;;;;;5073152;28;20465;-70
2021/05/26 08:20:54;;;;;;;7.17;2.00;;;11.60;99.90;;;;;;5073180;28;20428;-70
2021/05/26 08:23:20;;;;;;;3.07;1.47;;;11.30;99.90;;;;;;5073283;28;20438;-71
2021/05/26 08:25:47;;;;;;;2.27;1.60;;;11.30;99.90;;;;;;5073236;28;20437;-70
2021/05/26 08:28:14;;;;;;;5.03;1.77;;;11.10;99.90;;;;;;5073152;28;20498;-70
2021/05/26 08:33:52;;;;;;;1.57;0.97;;;11.10;99.90;;;;;;5071296;28;20441;-71
2021/05/26 08:36:18;;;;;;;4.83;1.30;;;11.10;99.90;;;;;;5072989;28;20461;-69
2021/05/26 08:38:45;;;;;;;1.50;1.23;;;11.20;99.90;;;;;;5072982;28;20466;-71
2021/05/26 08:41:13;;;;;;;1.60;1.20;;;11.20;99.90;;;;;;5072953;28;20487;-71
2021/05/26 08:43:42;;;;;;;5.80;1.10;;;11.40;99.90;;;;;;5073050;28;20441;-70
2021/05/26 08:46:10;;;;;;;7.33;1.47;;;11.50;99.90;;;;;;5072759;28;20529;-71
2021/05/26 08:48:37;;;;;;;5.93;1.83;;;11.60;99.90;;;;;;5072800;28;20509;-71
2021/05/26 08:51:06;;;;;;;3.97;1.77;;;11.80;99.90;;;;;;5072938;28;20437;-71
2021/05/26 08:53:35;;;;;;;2.53;1.50;;;12.10;99.90;;;;;;5072625;28;20438;-71
2021/05/26 08:56:01;;;;;;;3.77;1.40;;;12.30;99.90;;;;;;5072759;28;20450;-70
2021/05/26 08:58:29;;;;;;;6.00;1.50;;;12.20;99.90;;;;;;5072564;28;20481;-71
2021/05/26 09:00:57;;;;;;;1.93;1.47;;;12.20;99.90;;;;;;5072667;28;20508;-70
2021/05/26 09:03:25;;;;;;;2.03;1.40;;;12.20;99.90;;;;;;5072149;28;20449;-70
2021/05/26 09:05:52;;;;;;;3.63;1.80;;;12.40;99.90;;;;;;5072434;28;20998;-71
2021/05/26 09:08:20;;;;;;;2.90;1.23;;;12.30;99.90;;;;;;5072617;28;20441;-68
2021/05/26 09:10:49;;;;;;;1.87;1.00;;;12.20;99.90;;;;;;5072439;28;20478;-69
2021/05/26 09:13:33;;;;;;;7.60;1.53;;;12.30;99.90;;;;;;5072030;28;20434;-69
2021/05/26 09:16:00;;;;;;;2.20;1.17;;;12.30;99.90;;;;;;5072292;28;20559;-70
2021/05/26 09:18:28;;;;;;;5.97;1.50;;;12.20;99.90;;;;;;5072099;28;21062;-70
2021/05/26 09:20:56;;;;;;;4.50;2.00;;;12.30;99.90;;;;;;5072192;28;20438;-70
2021/05/26 09:23:28;;;;;;;3.17;1.40;;;12.40;99.90;;;;;;5071888;28;20525;-70
2021/05/26 09:25:57;;;;;;;4.07;1.20;;;12.40;99.90;;;;;;5072075;28;20472;-70
2021/05/26 09:28:30;;;;;;;2.50;1.63;;;12.20;99.90;;;;;;5071910;28;20520;-70
2021/05/26 09:30:59;;;;;;;4.17;1.70;;;12.10;99.90;;;;;;5071959;28;20441;-70
2021/05/26 09:33:30;;;;;;;6.90;1.33;;;12.20;99.90;;;;;;5070976;28;20446;-69
2021/05/26 09:36:20;;;;;;;1.77;1.27;;;12.30;99.90;;;;;;5071295;28;20480;-70
2021/05/26 09:38:50;;;;;;;15.23;2.17;;;12.30;99.90;;;;;;5068692;28;20472;-70
2021/05/26 09:41:20;;;;;;;2.33;1.40;;;12.40;99.90;;;;;;5071582;28;20922;-70
2021/05/26 09:43:49;;;;;;;3.20;1.10;;;12.20;99.90;;;;;;5071337;28;20429;-70
2021/05/26 09:46:20;;;;;;;4.63;1.70;;;12.40;99.90;;;;;;5070734;28;20481;-71
2021/05/26 09:49:20;;;;;;;2.37;1.33;;;12.30;99.90;;;;;;5071372;28;20810;-71
2021/05/26 09:51:49;;;;;;;6.00;1.70;;;12.40;99.90;;;;;;5072064;28;20433;-70
2021/05/26 09:54:22;;;;;;;3.77;1.47;;;12.30;99.90;;;;;;5071623;28;20469;-70
2021/05/26 09:56:51;;;;;;;2.97;1.43;;;12.30;99.90;;;;;;5071747;28;20448;-70
2021/05/26 09:59:19;;;;;;;3.23;1.93;;;12.30;99.90;;;;;;5071665;28;20916;-70
2021/05/26 10:01:46;;;;;;;3.07;1.50;;;12.40;99.90;;;;;;5071740;28;20469;-72
2021/05/26 10:04:14;;;;;;;3.20;1.60;;;12.60;99.90;;;;;;5070954;28;20422;-72
2021/05/26 10:06:41;;;;;;;3.37;1.40;;;12.50;99.90;;;;;;5071360;28;20459;-71
2021/05/26 10:09:12;;;;;;;2.13;1.20;;;12.50;99.90;;;;;;5071246;28;20461;-72
2021/05/26 10:11:39;;;;;;;3.37;1.60;;;12.50;99.90;;;;;;5071335;28;20425;-71
2021/05/26 10:14:08;;;;;;;3.73;1.60;;;12.40;99.90;;;;;;5070167;28;20430;-71
2021/05/26 10:16:38;;;;;;;3.10;1.33;;;12.50;99.90;;;;;;5071197;28;20468;-72
2021/05/26 10:19:05;;;;;;;5.50;1.73;;;12.60;99.90;;;;;;5070925;28;20560;-71
2021/05/26 10:21:34;;;;;;;2.70;1.30;;;12.70;99.90;;;;;;5071100;28;20469;-72
2021/05/26 10:24:06;;;;;;;3.87;1.07;;;12.70;99.90;;;;;;5070815;28;20534;-71
2021/05/26 10:26:59;;;;;;;4.63;1.57;;;12.70;99.90;;;;;;5071086;28;20457;-71
2021/05/26 10:29:36;;;;;;;6.30;1.60;;;12.60;99.90;;;;;;5070675;28;20434;-72
2021/05/26 10:32:04;;;;;;;7.03;1.63;;;12.60;99.90;;;;;;5071164;28;20433;-71
2021/05/26 10:35:08;;;;;;;6.10;2.50;;;12.50;99.90;;;;;;5069878;28;20504;-71
2021/05/26 10:37:41;;;;;;;9.60;2.70;;;12.40;99.90;;;;;;5070983;28;20477;-72
2021/05/26 10:40:31;;;;;;;9.30;2.07;;;12.30;99.90;;;;;;5070539;28;21004;-71
2021/05/26 10:43:36;;;;;;;3.40;1.77;;;12.40;99.90;;;;;;5070498;28;20521;-71
2021/05/26 10:46:05;;;;;;;2.67;1.70;;;12.40;99.90;;;;;;5050205;28;20523;-72
2021/05/26 10:49:03;;;;;;;2.43;1.60;;;12.20;99.90;;;;;;5058501;28;20535;-71
2021/05/26 10:52:07;;;;;;;18.80;1.33;;;12.20;99.90;;;;;;5081230;28;20443;-71
2021/05/26 10:54:59;;;;;;;2.73;1.90;;;12.00;99.90;;;;;;5087495;28;20431;-71
2021/05/26 10:57:26;;;;;;;4.30;1.30;;;12.00;99.90;;;;;;5070549;28;20807;-71
2021/05/26 11:00:28;;;;;;;1.70;1.13;;;12.00;99.90;;;;;;5070198;28;20474;-72
2021/05/26 11:03:44;;;;;;;5.23;2.00;;;12.00;99.90;;;;;;5070381;28;20436;-72
2021/05/26 11:06:38;;;;;;;4.30;1.77;;;11.90;99.90;;;;;;5070260;28;20493;-71
2021/05/26 11:09:09;;;;;;;8.20;2.00;;;12.00;99.90;;;;;;5050386;28;20935;-71
2021/05/26 11:11:50;;;;;;;3.30;1.97;;;12.00;99.90;;;;;;5050338;28;20427;-72
2021/05/26 11:14:33;;;;;;;3.70;1.87;;;12.00;99.90;;;;;;5058576;28;20433;-72
2021/05/26 11:17:27;;;;;;;3.37;1.57;;;12.10;99.90;;;;;;5068907;28;20460;-71
2021/05/26 11:20:14;;;;;;;2.60;1.30;;;12.10;99.90;;;;;;5070216;28;20516;-72
2021/05/26 11:22:41;;;;;;;4.67;1.77;;;12.10;99.90;;;;;;5070161;28;20455;-73
2021/05/26 11:25:11;;;;;;;4.63;2.20;;;12.20;99.90;;;;;;5069972;28;20441;-72
2021/05/26 11:27:54;;;;;;;5.93;1.90;;;12.10;99.90;;;;;;5070228;28;20457;-72
2021/05/26 11:30:26;;;;;;;2.57;1.83;;;12.10;99.90;;;;;;5069236;28;20927;-71
2021/05/26 11:32:54;;;;;;;7.33;2.37;;;12.00;99.90;;;;;;5070225;28;20572;-71
2021/05/26 11:35:21;;;;;;;4.73;1.63;;;11.90;99.90;;;;;;5070004;28;20475;-71
2021/05/26 11:37:48;;;;;;;4.37;1.70;;;11.80;99.90;;;;;;5070116;28;20445;-71
2021/05/26 11:40:27;;;;;;;5.13;2.40;;;11.90;99.90;;;;;;5069948;28;20476;-71
2021/05/26 11:42:57;;;;;;;2.97;1.53;;;11.80;99.90;;;;;;5069894;28;20434;-71
2021/05/26 11:45:24;;;;;;;5.60;2.80;;;11.90;99.90;;;;;;5050281;28;20788;-71
2021/05/26 11:47:52;;;;;;;5.90;2.40;;;11.80;99.90;;;;;;5060531;28;20473;-70
2021/05/26 11:50:25;;;;;;;7.97;3.20;;;11.80;99.90;;;;;;5070043;28;20519;-71
2021/05/26 11:52:54;;;;;;;2.37;1.40;;;11.60;99.90;;;;;;5069945;28;20437;-70
2021/05/26 11:55:22;;;;;;;4.70;2.13;;;11.60;99.90;;;;;;5069927;28;20960;-70
2021/05/26 11:57:50;;;;;;;4.77;2.57;;;11.60;99.90;;;;;;5071085;28;20464;-70
2021/05/26 12:00:24;;;;;;;2.27;1.63;;;11.60;99.90;;;;;;5073460;28;20478;-70
2021/05/26 12:02:56;;;;;;;5.07;2.03;;;11.70;99.90;;;;;;5072884;28;20501;-70
2021/05/26 12:05:40;;;;;;;5.33;1.80;;;11.70;99.90;;;;;;5073404;28;20422;-69
2021/05/26 12:08:18;;;;;;;7.40;1.90;;;11.60;99.90;;;;;;5072435;28;20438;-70
2021/05/26 12:10:47;;;;;;;4.67;1.60;;;11.50;99.90;;;;;;5073557;28;20803;-71
2021/05/26 12:13:18;;;;;;;9.10;3.97;;;11.50;99.90;;;;;;5073045;28;20441;-71
2021/05/26 12:15:46;;;;;;;3.53;1.73;;;11.50;99.90;;;;;;5073408;28;20414;-70
2021/05/26 12:18:13;;;;;;;3.70;2.30;;;11.30;99.90;;;;;;5072497;28;20429;-70
2021/05/26 12:20:43;;;;;;;5.50;2.80;;;11.30;99.90;;;;;;5073148;28;20814;-70
2021/05/26 12:23:10;;;;;;;5.50;2.00;;;11.30;99.90;;;;;;5072681;28;20441;-72
2021/05/26 12:25:40;;;;;;;3.80;2.43;;;11.30;99.90;;;;;;5073070;28;20426;-72
2021/05/26 12:28:19;;;;;;;5.57;2.50;;;11.30;99.90;;;;;;5073209;28;20521;-72
2021/05/26 12:30:49;;;;;;;1.87;1.40;;;11.30;99.90;;;;;;5072941;28;20448;-72
2021/05/26 12:33:20;;;;;;;7.43;1.60;;;11.30;99.90;;;;;;5072662;28;20810;-72
2021/05/26 12:36:08;;;;;;;3.60;1.80;;;11.20;99.90;;;;;;5073106;28;20842;-72
2021/05/26 12:38:36;;;;;;;3.20;1.97;;;11.20;99.90;;;;;;5072450;28;20472;-72
2021/05/26 12:41:22;;;;;;;2.80;1.47;;;11.20;99.90;;;;;;5072782;28;21068;-72
2021/05/26 12:43:49;;;;;;;3.67;1.67;;;11.20;99.90;;;;;;5079899;28;20441;-72
2021/05/26 12:46:39;;;;;;;2.70;1.93;;;11.10;99.90;;;;;;5093143;28;20819;-72
2021/05/26 12:49:06;;;;;;;2.07;1.60;;;11.20;99.90;;;;;;5092924;28;20468;-73
2021/05/26 12:51:41;;;;;;;4.97;2.80;;;11.20;99.90;;;;;;5092886;28;20482;-71
2021/05/26 12:54:08;;;;;;;1.83;1.47;;;11.30;99.90;;;;;;5078120;28;20448;-72
2021/05/26 12:56:34;;;;;;;3.53;1.90;;;11.20;99.90;;;;;;5072428;28;21126;-69
2021/05/26 12:59:01;;;;;;;1.60;1.40;;;11.10;99.90;;;;;;5072013;28;20511;-69
2021/05/26 13:01:28;;;;;;;1.93;1.30;;;11.10;99.90;;;;;;5072148;28;20848;-68
2021/05/26 13:03:55;;;;;;;7.13;1.63;;;11.10;99.90;;;;;;5072207;28;20854;-70
2021/05/26 13:06:22;;;;;;;2.33;1.90;;;11.10;99.90;;;;;;5071664;28;20479;-69
2021/05/26 13:08:59;;;;;;;5.67;2.43;;;11.20;99.90;;;;;;5070893;28;20465;-69